Terminal Aerodrome Forecast
Issued by NWS Charleston, WV

Current Version | Previous Version | Text Only | Print | Product List | Glossary Off
Versions: 1 2 3 4 5 6 7 8 9 10 11 12 13 14 15 16 17 18 19 20 21 22 23 24 25

000
FTUS41 KRLX 261100 RRA
TAFBKW
TAF
KBKW 261144Z 2612/2712 VRB03KT 4SM -SN BR OVC025
     FM261500 VRB03KT 6SM -SN BR OVC035
     FM261600 VRB03KT P6SM OVC035
     FM270000 32005KT 6SM -SHSN BR BKN025
     FM270300 32005KT 3SM -SHSN BR BKN015
     FM270800 32007KT P6SM BKN015
     FM271000 32007KT P6SM BKN025=

USA.gov is the U.S. government's official web portal to all federal, state and local government web resources and services.